Time;durP1;ratioP1;P1;durP2;ratioP2;P2;SDS_P1;SDS_P2;PMS_P1;PMS_P2;Temp;Humidity;BMP_temperature;BMP_pressure;BME280_temperature;BME280_humidity;BME280_pressure;Samples;Min_cycle;Max_cycle;Signal;HPM_P1;HPM_P2
2023/01/29 00:00:09;;;;;;;;;43.75;38.00;;;;;6.05;53.32;102519.91;2068457;28;46599;-64
2023/01/29 00:01:09;;;;;;;;;50.80;40.80;;;;;6.05;53.49;102525.19;2065885;28;47195;-64
2023/01/29 00:02:10;;;;;;;;;45.50;37.25;;;;;6.05;53.43;102526.06;2062084;28;46400;-62
2023/01/29 00:03:10;;;;;;;;;47.50;40.50;;;;;6.05;53.48;102520.78;2062596;28;46795;-63
2023/01/29 00:04:10;;;;;;;;;49.50;40.25;;;;;6.04;53.44;102516.38;2061808;28;46560;-64
2023/01/29 00:05:11;;;;;;;;;45.00;38.75;;;;;6.03;53.89;102521.63;2071963;27;46484;-63
2023/01/29 00:06:11;;;;;;;;;45.75;37.50;;;;;6.02;53.37;102520.72;2077346;28;46589;-64
2023/01/29 00:07:12;;;;;;;;;44.00;36.50;;;;;6.00;53.74;102519.81;2064540;28;45536;-63
2023/01/29 00:08:12;;;;;;;;;44.75;39.25;;;;;5.99;53.74;102517.13;2064124;28;46093;-64
2023/01/29 00:09:13;;;;;;;;;43.00;35.25;;;;;5.98;53.65;102516.25;2067505;28;46247;-63
2023/01/29 00:10:13;;;;;;;;;41.75;31.75;;;;;5.97;53.77;102518.81;2065774;28;46964;-65
2023/01/29 00:11:15;;;;;;;;;42.75;39.75;;;;;5.97;53.63;102514.47;2058814;28;47123;-65
2023/01/29 00:12:15;;;;;;;;;46.00;39.00;;;;;5.97;53.96;102521.44;2061697;28;46375;-65
2023/01/29 00:13:16;;;;;;;;;39.00;35.00;;;;;5.96;53.73;102519.66;2060442;28;46339;-63
2023/01/29 00:14:16;;;;;;;;;38.75;36.00;;;;;5.96;54.02;102522.28;2065208;28;46295;-65
2023/01/29 00:15:17;;;;;;;;;42.00;36.00;;;;;5.95;53.90;102521.41;2062815;28;46478;-63
2023/01/29 00:16:17;;;;;;;;;36.75;34.75;;;;;5.96;53.31;102520.56;2055568;28;46344;-61
2023/01/29 00:17:18;;;;;;;;;43.25;37.75;;;;;5.96;53.86;102517.91;2055655;28;45919;-64
2023/01/29 00:18:18;;;;;;;;;45.00;36.75;;;;;5.95;53.84;102517.88;2063392;28;45721;-63
2023/01/29 00:19:18;;;;;;;;;46.75;38.25;;;;;5.95;53.55;102512.59;2060110;28;46411;-63
2023/01/29 00:20:19;;;;;;;;;52.00;41.00;;;;;5.95;53.60;102516.13;2066990;27;46101;-63
2023/01/29 00:21:21;;;;;;;;;38.50;37.00;;;;;5.94;53.49;102517.00;2064924;28;46757;-63
2023/01/29 00:22:21;;;;;;;;;50.20;41.00;;;;;5.92;53.81;102516.06;2060539;28;46964;-63
2023/01/29 00:23:22;;;;;;;;;53.50;43.00;;;;;5.90;53.78;102521.28;2066339;28;46629;-65
2023/01/29 00:24:22;;;;;;;;;42.50;39.25;;;;;5.91;53.70;102509.00;2069554;28;46656;-62
2023/01/29 00:25:22;;;;;;;;;36.75;32.25;;;;;5.90;53.98;102510.75;2075884;27;45549;-64
2023/01/29 00:26:23;;;;;;;;;49.25;38.50;;;;;5.90;53.67;102512.50;2074949;28;46480;-64
2023/01/29 00:27:23;;;;;;;;;50.25;43.25;;;;;5.88;54.16;102507.16;2055379;28;45876;-65
2023/01/29 00:28:24;;;;;;;;;43.75;38.75;;;;;5.90;53.95;102509.88;2096664;27;45957;-65
2023/01/29 00:29:24;;;;;;;;;51.50;42.00;;;;;5.88;53.63;102503.63;2063215;28;45971;-65
2023/01/29 00:30:24;;;;;;;;;49.25;40.75;;;;;5.88;53.78;102506.28;2060978;28;46612;-64
2023/01/29 00:31:25;;;;;;;;;51.00;40.50;;;;;5.88;54.10;102508.91;2092665;28;46908;-63
2023/01/29 00:32:25;;;;;;;;;50.50;40.00;;;;;5.87;53.79;102502.75;2058287;27;46190;-64
2023/01/29 00:33:27;;;;;;;;;45.25;39.25;;;;;5.88;53.83;102504.53;2086312;28;46277;-62
2023/01/29 00:34:28;;;;;;;;;47.40;38.60;;;;;5.87;54.09;102499.22;2065034;28;46420;-63
2023/01/29 00:35:29;;;;;;;;;43.00;37.50;;;;;5.88;53.78;102503.63;2064103;28;46853;-64
2023/01/29 00:36:29;;;;;;;;;43.40;38.00;;;;;5.88;53.89;102501.00;2072113;28;46802;-64
2023/01/29 00:37:29;;;;;;;;;44.75;38.75;;;;;5.86;53.75;102497.44;2067674;28;46707;-64
2023/01/29 00:38:31;;;;;;;;;47.75;40.00;;;;;5.87;54.03;102504.50;2062454;28;46058;-65
2023/01/29 00:39:37;;;;;;;;;39.40;36.40;;;;;5.86;54.15;102507.97;2068825;28;46877;-66
2023/01/29 00:45:54;;;;;;;;;45.00;38.40;;;;;5.85;54.17;102500.94;2061841;28;46385;-64
2023/01/29 00:46:55;;;;;;;;;50.75;43.75;;;;;5.84;54.18;102500.03;2061070;28;46310;-63
2023/01/29 00:47:55;;;;;;;;;48.00;40.00;;;;;5.85;53.92;102498.28;2100661;28;46463;-64
2023/01/29 00:48:56;;;;;;;;;46.00;39.50;;;;;5.84;54.19;102501.75;2098520;27;46775;-65
2023/01/29 00:49:56;;;;;;;;;49.00;40.75;;;;;5.85;54.28;102498.28;2060733;27;46307;-65
2023/01/29 00:50:57;;;;;;;;;53.50;43.25;;;;;5.85;53.76;102503.56;2071704;27;46280;-65
2023/01/29 00:53:16;;;;;;;;;49.40;40.60;;;;;5.85;54.12;102503.56;2061094;28;46605;-64
2023/01/29 00:54:16;;;;;;;;;44.50;39.50;;;;;5.85;53.83;102508.84;2066209;28;46768;-64
2023/01/29 00:55:17;;;;;;;;;51.25;40.50;;;;;5.85;53.82;102509.72;2055148;28;46594;-63
2023/01/29 00:56:17;;;;;;;;;40.25;36.00;;;;;5.84;53.99;102507.94;2061035;28;46556;-64
2023/01/29 00:57:18;;;;;;;;;55.75;45.25;;;;;5.85;53.79;102507.09;2061990;28;46833;-64
2023/01/29 00:58:21;;;;;;;;;48.75;39.50;;;;;5.85;54.12;102509.72;2054292;28;46996;-64
2023/01/29 00:59:21;;;;;;;;;48.20;38.40;;;;;5.84;53.64;102507.94;2066688;28;46946;-64
2023/01/29 01:00:23;;;;;;;;;53.25;42.50;;;;;5.85;54.28;102503.56;2063869;28;46750;-62
2023/01/29 01:04:01;;;;;;;;;55.80;43.40;;;;;5.85;54.03;102503.56;2072837;28;46328;-63
2023/01/29 01:05:04;;;;;;;;;51.50;43.00;;;;;5.84;54.02;102501.75;2056022;28;46287;-64
2023/01/29 01:06:07;;;;;;;;;54.80;44.60;;;;;5.84;54.19;102494.78;2058821;28;46779;-63
2023/01/29 01:07:08;;;;;;;;;49.20;39.00;;;;;5.82;54.39;102496.44;2078955;28;46604;-64
2023/01/29 01:10:56;;;;;;;;;51.20;42.00;;;;;5.77;54.85;102484.91;2056856;28;46366;-63
2023/01/29 01:11:57;;;;;;;;;52.80;45.80;;;;;5.78;54.08;102497.22;2053059;28;46551;-64
2023/01/29 01:13:05;;;;;;;;;48.50;40.00;;;;;5.76;54.38;102493.66;2061053;28;46249;-64
2023/01/29 01:14:06;;;;;;;;;52.80;42.80;;;;;5.76;54.30;102487.50;2058133;28;46728;-63
2023/01/29 01:15:07;;;;;;;;;52.00;44.25;;;;;5.74;54.55;102495.38;2052784;28;46889;-64
2023/01/29 01:16:11;;;;;;;;;44.50;34.75;;;;;5.74;54.81;102498.00;2052793;28;46948;-63
2023/01/29 01:17:12;;;;;;;;;54.20;45.00;;;;;5.73;54.21;102490.97;2053178;28;46937;-62
2023/01/29 01:18:14;;;;;;;;;48.00;41.00;;;;;5.74;54.65;102494.47;2052212;28;46421;-63
2023/01/29 01:19:15;;;;;;;;;52.80;42.00;;;;;5.73;54.61;102496.22;2060301;28;45076;-63
2023/01/29 01:20:16;;;;;;;;;51.60;42.80;;;;;5.73;54.81;102496.22;2055557;28;46430;-62
2023/01/29 01:21:16;;;;;;;;;49.00;42.50;;;;;5.72;54.70;102494.44;2063561;28;46245;-64
2023/01/29 01:22:16;;;;;;;;;54.25;45.25;;;;;5.72;54.63;102490.91;2061730;28;46946;-68
2023/01/29 01:23:19;;;;;;;;;56.75;42.75;;;;;5.73;54.37;102495.34;2055456;28;46465;-65
2023/01/29 01:24:20;;;;;;;;;48.80;41.20;;;;;5.71;54.57;102492.63;2053851;28;46559;-63
2023/01/29 01:25:22;;;;;;;;;55.25;41.00;;;;;5.71;54.73;102490.00;2057785;28;46363;-64
2023/01/29 01:26:22;;;;;;;;;53.60;43.20;;;;;5.71;54.96;102497.00;2061401;28;46113;-65
2023/01/29 01:27:22;;;;;;;;;42.25;38.75;;;;;5.71;54.56;102494.38;2061811;28;46749;-64
2023/01/29 01:28:23;;;;;;;;;53.50;43.25;;;;;5.70;54.76;102498.75;2062166;28;46957;-64
2023/01/29 01:29:23;;;;;;;;;52.00;42.25;;;;;5.69;54.87;102491.69;2062389;28;46643;-63
2023/01/29 01:30:24;;;;;;;;;52.75;44.50;;;;;5.69;54.83;102496.97;2062422;28;45908;-62
2023/01/29 01:31:25;;;;;;;;;48.00;41.40;;;;;5.68;54.76;102489.94;2062027;28;46769;-64
2023/01/29 01:32:25;;;;;;;;;52.25;45.25;;;;;5.67;54.47;102485.50;2061018;28;46342;-63
2023/01/29 01:33:25;;;;;;;;;54.00;43.25;;;;;5.67;54.75;102493.41;2060970;28;46298;-64
2023/01/29 01:34:26;;;;;;;;;47.00;41.25;;;;;5.66;54.94;102498.66;2062291;28;46254;-63
2023/01/29 01:35:27;;;;;;;;;49.75;42.25;;;;;5.65;54.90;102494.22;2055948;28;46226;-62
2023/01/29 01:36:27;;;;;;;;;54.25;46.00;;;;;5.65;54.96;102504.75;2055223;28;45505;-63
2023/01/29 01:37:27;;;;;;;;;47.75;41.50;;;;;5.63;55.12;102504.72;2069998;28;46795;-65
2023/01/29 01:38:28;;;;;;;;;49.00;43.00;;;;;5.61;55.21;102499.41;2068084;28;46681;-64
2023/01/29 01:39:28;;;;;;;;;55.25;44.25;;;;;5.63;55.35;102495.94;2062101;28;46338;-65
2023/01/29 01:40:29;;;;;;;;;48.75;41.25;;;;;5.63;55.09;102495.94;2062145;28;46609;-62
2023/01/29 01:41:29;;;;;;;;;53.25;43.75;;;;;5.60;54.96;102495.00;2062042;28;46503;-65
2023/01/29 01:42:30;;;;;;;;;51.75;43.50;;;;;5.61;54.59;102494.16;2062597;28;46329;-63
2023/01/29 01:43:59;;;;;;;;;51.75;44.75;;;;;5.63;54.80;102498.56;2062542;28;46219;-63
2023/01/29 01:45:04;;;;;;;;;53.60;43.20;;;;;5.62;55.21;102495.03;2069720;27;46761;-63
2023/01/29 01:46:04;;;;;;;;;50.80;44.80;;;;;5.60;54.85;102492.38;2064843;27;46303;-64
2023/01/29 01:47:04;;;;;;;;;58.25;46.50;;;;;5.59;55.40;102493.22;2062972;27;46184;-63
2023/01/29 01:48:14;;;;;;;;;50.50;40.75;;;;;5.61;55.24;102493.25;2070375;28;46693;-63
2023/01/29 01:49:20;;;;;;;;;51.40;43.40;;;;;5.61;55.06;102495.91;2073933;27;46639;-63
2023/01/29 01:50:23;;;;;;;;;48.00;41.00;;;;;5.60;55.29;102499.38;2077560;27;46553;-63
2023/01/29 01:51:27;;;;;;;;;53.40;42.80;;;;;5.62;55.02;102495.03;2054081;28;47423;-63
2023/01/29 01:52:30;;;;;;;;;46.40;40.00;;;;;5.62;55.27;102502.94;2058482;28;46427;-63
2023/01/29 01:53:37;;;;;;;;;51.20;42.80;;;;;5.65;55.24;102504.75;2070587;27;47115;-63
2023/01/29 01:54:37;;;;;;;;;53.80;45.20;;;;;5.63;55.13;102504.72;2078739;28;46385;-64
2023/01/29 01:55:47;;;;;;;;;57.25;44.50;;;;;5.63;55.34;102503.84;2078130;27;46756;-64
2023/01/29 01:56:54;;;;;;;;;52.80;43.60;;;;;5.63;54.88;102503.84;2078274;27;46544;-63
2023/01/29 01:58:08;;;;;;;;;42.60;39.00;;;;;5.61;55.45;102498.53;2069220;27;46461;-64
2023/01/29 01:59:12;;;;;;;;;46.60;42.80;;;;;5.61;55.18;102495.91;2071720;27;46016;-65
2023/01/29 02:00:16;;;;;;;;;47.60;41.20;;;;;5.60;55.14;102502.91;2077971;27;46648;-63
2023/01/29 02:01:17;;;;;;;;;54.80;45.20;;;;;5.60;54.98;102494.13;2067577;28;46333;-63
2023/01/29 02:09:35;;;;;;;;;46.80;40.40;;;;;5.56;55.57;102510.66;2047827;28;45928;-63
2023/01/29 02:10:45;;;;;;;;;51.20;42.00;;;;;5.55;55.60;102509.78;2043967;28;47059;-64
2023/01/29 02:11:45;;;;;;;;;54.80;45.20;;;;;5.56;55.39;102508.03;2049349;28;46431;-66
2023/01/29 02:12:46;;;;;;;;;46.00;41.25;;;;;5.56;55.61;102511.56;2061309;28;45785;-63
2023/01/29 02:13:52;;;;;;;;;50.00;42.40;;;;;5.56;55.08;102514.19;2048191;28;46397;-65
2023/01/29 02:14:52;;;;;;;;;52.00;42.40;;;;;5.55;55.19;102508.88;2056195;28;46902;-65
2023/01/29 02:15:53;;;;;;;;;52.75;43.00;;;;;5.53;55.64;102516.75;2095443;28;44932;-64
2023/01/29 02:16:53;;;;;;;;;46.75;38.25;;;;;5.54;55.62;102518.53;2078373;28;46199;-63
2023/01/29 02:17:54;;;;;;;;;43.50;38.25;;;;;5.53;55.34;102518.47;2078796;28;46595;-64
2023/01/29 02:18:54;;;;;;;;;44.00;39.75;;;;;5.53;55.52;102513.22;2095312;28;45891;-63
2023/01/29 02:20:01;;;;;;;;;57.75;45.75;;;;;5.53;55.34;102513.22;2065350;28;46493;-61
2023/01/29 02:21:49;;;;;;;;;56.80;46.20;;;;;5.52;55.37;102501.78;2046152;28;46542;-62
2023/01/29 02:23:22;;;;;;;;;54.00;43.80;;;;;5.53;55.61;102513.22;2051281;28;46298;-64
2023/01/29 02:24:49;;;;;;;;;51.40;43.40;;;;;5.52;55.81;102517.59;2052641;28;46601;-63
2023/01/29 02:25:59;;;;;;;;;56.60;43.80;;;;;5.51;55.79;102507.03;2044983;28;46769;-64
2023/01/29 02:27:11;;;;;;;;;46.80;41.00;;;;;5.51;55.29;102510.53;2044549;28;46748;-64
2023/01/29 02:28:36;;;;;;;;;52.40;43.20;;;;;5.51;55.40;102512.28;2052932;28;46013;-64
2023/01/29 02:29:49;;;;;;;;;55.80;44.60;;;;;5.50;55.59;102511.41;2057992;28;46272;-63
2023/01/29 02:31:19;;;;;;;;;50.60;43.00;;;;;5.49;55.86;102506.97;2056322;28;46575;-64
2023/01/29 02:32:33;;;;;;;;;45.40;40.40;;;;;5.48;55.98;102510.47;2051550;28;46550;-64
2023/01/29 02:33:55;;;;;;;;;51.40;42.60;;;;;5.47;56.01;102510.44;2044977;28;45735;-63
2023/01/29 02:36:49;;;;;;;;;55.40;46.20;;;;;5.44;55.64;102511.22;2051745;28;45846;-64
2023/01/29 02:37:52;;;;;;;;;58.60;48.00;;;;;5.44;55.97;102513.84;2052469;28;46621;-64
2023/01/29 02:39:10;;;;;;;;;53.80;43.40;;;;;5.43;55.45;102512.06;2053005;28;45998;-63
2023/01/29 02:40:44;;;;;;;;;57.80;45.60;;;;;5.44;56.09;102519.09;2052921;28;46698;-65
2023/01/29 02:41:49;;;;;;;;;55.40;43.80;;;;;5.45;55.86;102514.72;2062450;28;46391;-63
2023/01/29 02:43:06;;;;;;;;;53.20;44.40;;;;;5.42;55.80;102510.28;2061900;28;45354;-64
2023/01/29 02:44:39;;;;;;;;;48.80;40.60;;;;;5.42;55.85;102510.28;2062922;28;46778;-66
2023/01/29 02:45:43;;;;;;;;;55.20;46.40;;;;;5.41;55.79;102507.59;2062528;28;46346;-63
2023/01/29 02:47:01;;;;;;;;;54.20;43.40;;;;;5.41;56.06;102508.50;2062105;28;46739;-63
2023/01/29 02:48:02;;;;;;;;;54.20;44.40;;;;;5.42;56.00;102504.13;2070346;28;46700;-63
2023/01/29 02:49:32;;;;;;;;;58.25;46.50;;;;;5.42;56.02;102499.75;2069898;28;46303;-63
2023/01/29 02:50:42;;;;;;;;;52.60;40.40;;;;;5.41;55.89;102503.22;2038217;28;46452;-62
2023/01/29 02:51:49;;;;;;;;;43.00;37.20;;;;;5.41;55.99;102502.34;2037812;28;46818;-63
2023/01/29 02:53:08;;;;;;;;;48.40;42.40;;;;;5.40;55.97;102501.44;2036500;28;47079;-64
2023/01/29 02:54:22;;;;;;;;;42.60;39.40;;;;;5.40;56.00;102498.81;2038046;28;46647;-63
2023/01/29 02:55:32;;;;;;;;;49.00;40.60;;;;;5.40;55.87;102497.94;2040012;28;46696;-64
2023/01/29 02:56:39;;;;;;;;;55.00;47.40;;;;;5.40;56.06;102492.66;2038751;28;46438;-63
2023/01/29 02:57:43;;;;;;;;;52.40;44.20;;;;;5.40;56.21;102490.91;2038105;28;47024;-64
2023/01/29 02:58:51;;;;;;;;;53.20;43.40;;;;;5.41;56.06;102491.81;2038259;28;46576;-63
2023/01/29 03:00:01;;;;;;;;;50.20;42.80;;;;;5.42;55.95;102494.47;2037407;28;46332;-63
2023/01/29 03:01:08;;;;;;;;;55.40;45.60;;;;;5.44;55.65;102487.50;2035083;28;46074;-64
2023/01/29 03:02:15;;;;;;;;;48.20;40.40;;;;;5.43;56.17;102485.72;2037679;28;46473;-63
2023/01/29 03:03:19;;;;;;;;;50.20;41.80;;;;;5.44;55.70;102481.34;2036458;28;46482;-64
2023/01/29 03:04:26;;;;;;;;;53.40;42.60;;;;;5.43;56.24;102476.94;2026487;28;46615;-64
2023/01/29 03:05:31;;;;;;;;;48.00;42.00;;;;;5.42;56.15;102478.69;2038345;28;45687;-64
2023/01/29 03:06:36;;;;;;;;;49.20;42.40;;;;;5.42;55.77;102469.91;2038126;28;46608;-64
2023/01/29 03:07:44;;;;;;;;;46.60;42.20;;;;;5.39;55.78;102464.56;2040304;28;46359;-64
2023/01/29 03:08:54;;;;;;;;;49.80;42.20;;;;;5.38;55.76;102468.03;2036352;28;46820;-65
2023/01/29 03:09:56;;;;;;;;;51.60;41.20;;;;;5.38;56.19;102473.31;2037604;28;46967;-66
2023/01/29 03:11:02;;;;;;;;;57.80;45.80;;;;;5.36;55.83;102470.63;2037838;28;46845;-65
2023/01/29 03:12:27;;;;;;;;;54.00;44.20;;;;;5.38;56.26;102476.81;2037836;28;46681;-65
2023/01/29 03:13:50;;;;;;;;;53.60;43.00;;;;;5.38;56.23;102476.81;2038233;28;46526;-64
2023/01/29 03:16:09;;;;;;;;;46.80;40.40;;;;;5.38;55.89;102468.94;2035144;28;46982;-63
2023/01/29 03:17:10;;;;;;;;;48.00;41.25;;;;;5.38;56.43;102468.94;2037416;28;46339;-64
2023/01/29 03:18:16;;;;;;;;;55.00;45.75;;;;;5.36;56.22;102475.91;2037689;28;46272;-64
2023/01/29 03:19:35;;;;;;;;;50.20;41.40;;;;;5.36;55.96;102477.66;2056553;28;46531;-65
2023/01/29 03:20:48;;;;;;;;;52.20;44.00;;;;;5.36;56.19;102485.53;2076147;28;46886;-63
2023/01/29 03:21:58;;;;;;;;;54.20;45.60;;;;;5.34;56.03;102482.88;2078194;28;46369;-64
2023/01/29 03:23:05;;;;;;;;;52.20;42.80;;;;;5.34;56.03;102480.25;2068007;28;46247;-63
2023/01/29 03:32:20;;;;;;;;;62.60;50.60;;;;;5.35;56.46;102476.75;2070109;28;46140;-64
2023/01/29 03:33:25;;;;;;;;;60.40;49.00;;;;;5.34;56.48;102472.34;2069225;28;46477;-63
2023/01/29 03:34:33;;;;;;;;;57.40;47.80;;;;;5.32;56.48;102464.38;2069919;28;46498;-65
2023/01/29 03:35:40;;;;;;;;;62.60;51.00;;;;;5.32;56.27;102479.28;2069404;28;46272;-64
2023/01/29 03:37:08;;;;;;;;;64.20;51.20;;;;;5.31;56.60;102464.34;2069666;28;46872;-64
2023/01/29 03:38:10;;;;;;;;;65.00;52.20;;;;;5.32;56.00;102466.13;2069270;28;46499;-64
2023/01/29 03:39:12;;;;;;;;;59.20;50.00;;;;;5.33;56.58;102467.88;2069717;28;46577;-63
2023/01/29 03:40:13;;;;;;;;;56.00;47.60;;;;;5.33;56.72;102470.53;2060888;28;46584;-65
2023/01/29 03:41:51;;;;;;;;;59.20;49.40;;;;;5.34;56.78;102471.44;2058856;28;46236;-63
2023/01/29 03:43:03;;;;;;;;;53.00;46.20;;;;;5.32;56.18;102476.66;2084006;28;45840;-63
2023/01/29 03:44:31;;;;;;;;;57.00;44.20;;;;;5.32;56.48;102479.28;2085589;28;46738;-63
2023/01/29 03:45:50;;;;;;;;;60.40;49.00;;;;;5.31;56.89;102477.50;2079065;28;46719;-64
2023/01/29 03:47:13;;;;;;;;;59.80;47.00;;;;;5.32;56.47;102474.91;2086733;28;46527;-64
2023/01/29 03:48:28;;;;;;;;;58.00;47.80;;;;;5.32;56.41;102472.28;2086389;28;46423;-65
2023/01/29 03:50:13;;;;;;;;;55.80;44.40;;;;;5.32;56.20;102468.75;2085813;28;46411;-64
2023/01/29 03:51:49;;;;;;;;;57.00;44.20;;;;;5.31;56.64;102474.84;2069907;28;46963;-64
2023/01/29 03:52:58;;;;;;;;;59.60;47.20;;;;;5.32;56.45;102476.66;2045180;28;47281;-61
2023/01/29 03:54:09;;;;;;;;;60.40;47.20;;;;;5.31;56.58;102477.50;2049056;28;46813;-63
2023/01/29 03:55:15;;;;;;;;;59.60;49.00;;;;;5.31;56.21;102475.75;2052614;28;45631;-64
2023/01/29 03:56:42;;;;;;;;;54.20;46.20;;;;;5.29;56.17;102472.19;2045601;28;45655;-63
2023/01/29 03:58:03;;;;;;;;;60.40;45.60;;;;;5.28;56.73;102477.41;2044925;28;46808;-64
2023/01/29 03:59:10;;;;;;;;;55.80;45.80;;;;;5.26;56.74;102479.13;2046028;28;46903;-64
2023/01/29 04:00:36;;;;;;;;;57.40;47.40;;;;;5.24;56.83;102467.66;2045739;28;46831;-64
2023/01/29 04:02:10;;;;;;;;;55.60;46.00;;;;;5.21;56.67;102471.09;2039150;28;45634;-63
2023/01/29 04:03:25;;;;;;;;;55.20;45.80;;;;;5.21;56.69;102471.09;2029996;28;46527;-63
2023/01/29 04:04:31;;;;;;;;;56.40;46.20;;;;;5.20;56.51;102473.66;2029425;29;46793;-63
2023/01/29 04:05:39;;;;;;;;;60.00;49.60;;;;;5.19;56.59;102471.88;2030877;28;46620;-64
2023/01/29 04:06:43;;;;;;;;;57.20;45.80;;;;;5.19;56.96;102471.88;2029456;29;46808;-64
2023/01/29 04:07:46;;;;;;;;;58.80;49.80;;;;;5.17;56.63;102469.22;2029505;29;46926;-64
2023/01/29 04:09:02;;;;;;;;;56.80;46.80;;;;;5.17;56.50;102471.84;2029443;28;46187;-64
2023/01/29 04:10:10;;;;;;;;;58.20;46.80;;;;;5.16;56.49;102475.31;2029382;29;47017;-64
2023/01/29 04:11:17;;;;;;;;;59.00;46.00;;;;;5.16;56.86;102477.06;2029152;29;46618;-64
2023/01/29 04:12:24;;;;;;;;;60.00;48.60;;;;;5.16;56.78;102479.69;2027215;29;46647;-63
2023/01/29 04:13:26;;;;;;;;;54.60;43.80;;;;;5.14;56.92;102474.41;2029379;29;45734;-63
2023/01/29 04:14:27;;;;;;;;;56.60;48.20;;;;;5.15;56.71;102467.38;2029393;29;46880;-64
2023/01/29 04:15:33;;;;;;;;;54.40;44.60;;;;;5.15;56.86;102468.28;2024373;29;46541;-64
2023/01/29 04:16:38;;;;;;;;;57.20;46.20;;;;;5.15;57.24;102470.03;2024905;29;46564;-65
2023/01/29 04:17:44;;;;;;;;;61.20;48.00;;;;;5.15;57.11;102470.03;2029353;29;46763;-65
2023/01/29 04:18:47;;;;;;;;;57.80;47.40;;;;;5.15;56.89;102470.03;2030166;28;46989;-63
2023/01/29 04:19:47;;;;;;;;;63.20;51.00;;;;;5.14;56.72;102469.13;2036969;28;45233;-64
2023/01/29 04:20:48;;;;;;;;;55.50;43.00;;;;;5.14;57.30;102465.59;2037206;28;46748;-63
2023/01/29 04:21:51;;;;;;;;;53.25;45.50;;;;;5.12;57.26;102462.94;2036945;28;46478;-63
2023/01/29 04:22:52;;;;;;;;;62.60;47.40;;;;;5.12;57.04;102459.41;2037386;28;45713;-63
2023/01/29 04:23:53;;;;;;;;;58.00;48.00;;;;;5.12;56.95;102475.22;2037484;28;45969;-62
2023/01/29 04:24:53;;;;;;;;;57.00;45.00;;;;;5.11;56.66;102470.78;2037290;28;45183;-64
2023/01/29 04:26:05;;;;;;;;;58.00;47.25;;;;;5.11;57.15;102470.78;2037266;28;46214;-63
2023/01/29 04:27:19;;;;;;;;;59.20;48.20;;;;;5.09;56.89;102465.50;2037131;28;46378;-63
2023/01/29 04:28:23;;;;;;;;;51.80;44.80;;;;;5.11;57.21;102470.78;2037027;28;46688;-63
2023/01/29 04:29:42;;;;;;;;;52.00;44.80;;;;;5.09;57.00;102476.03;2036956;28;46559;-63
2023/01/29 04:31:01;;;;;;;;;54.60;45.00;;;;;5.10;56.99;102476.91;2028618;28;46374;-63
2023/01/29 04:32:17;;;;;;;;;54.60;44.00;;;;;5.09;57.05;102473.38;2020860;29;46395;-64
2023/01/29 04:33:38;;;;;;;;;56.20;46.40;;;;;5.08;57.35;102478.56;2028289;28;45966;-64
2023/01/29 04:34:57;;;;;;;;;50.80;44.20;;;;;5.07;56.70;102476.78;2028457;28;46864;-63
2023/01/29 04:36:15;;;;;;;;;53.00;46.00;;;;;5.07;56.88;102484.69;2027925;28;46316;-64
2023/01/29 04:37:34;;;;;;;;;56.80;46.40;;;;;5.05;57.38;102478.50;2028431;28;46807;-63
2023/01/29 04:38:59;;;;;;;;;58.40;45.20;;;;;5.05;57.01;102473.22;2020329;29;46318;-64
2023/01/29 04:40:08;;;;;;;;;52.20;43.80;;;;;5.04;57.40;102482.88;2034979;28;46981;-63
2023/01/29 04:41:23;;;;;;;;;53.80;44.20;;;;;5.02;57.44;102481.94;2061086;28;46441;-64
2023/01/29 04:42:31;;;;;;;;;60.60;48.80;;;;;5.00;57.24;102474.00;2060865;28;46750;-63
2023/01/29 04:43:44;;;;;;;;;54.80;45.60;;;;;5.00;57.20;102487.16;2062920;28;47185;-63
2023/01/29 04:45:06;;;;;;;;;53.20;45.20;;;;;4.99;57.35;102485.38;2069323;28;45790;-65
2023/01/29 04:46:16;;;;;;;;;56.00;45.80;;;;;4.99;57.57;102487.13;2068891;28;46688;-64
2023/01/29 04:47:35;;;;;;;;;49.60;42.80;;;;;4.98;57.39;102494.13;2068990;28;46768;-64
2023/01/29 04:48:42;;;;;;;;;59.40;48.80;;;;;4.98;57.60;102488.84;2060767;28;47324;-64
2023/01/29 04:49:49;;;;;;;;;59.40;49.20;;;;;4.97;57.17;102494.06;2068812;28;46777;-63
2023/01/29 04:51:04;;;;;;;;;57.60;45.40;;;;;4.96;57.39;102489.66;2069054;28;45924;-64
2023/01/29 04:52:20;;;;;;;;;57.80;47.40;;;;;4.97;57.65;102499.34;2068770;28;46490;-64
2023/01/29 04:53:20;;;;;;;;;56.20;46.60;;;;;4.97;57.12;102491.44;2063774;27;46423;-64
2023/01/29 04:54:27;;;;;;;;;53.00;45.75;;;;;4.97;57.54;102486.19;2070027;27;46841;-64
2023/01/29 04:55:50;;;;;;;;;57.20;47.60;;;;;4.96;57.16;102487.91;2067616;28;46362;-64
2023/01/29 04:57:09;;;;;;;;;56.40;46.80;;;;;4.96;57.58;102492.28;2062487;28;46484;-64
2023/01/29 04:58:36;;;;;;;;;61.00;47.20;;;;;4.94;57.58;102486.97;2062377;28;47160;-64
2023/01/29 05:00:01;;;;;;;;;61.20;49.00;;;;;4.95;57.62;102490.47;2068277;28;46856;-64
2023/01/29 05:01:05;;;;;;;;;61.20;48.60;;;;;4.95;57.33;102506.25;2068258;28;46736;-63
2023/01/29 05:02:09;;;;;;;;;60.00;47.00;;;;;4.92;57.60;102501.81;2068384;28;46546;-63
2023/01/29 05:03:14;;;;;;;;;61.20;49.00;;;;;4.92;57.52;102498.28;2055116;28;46920;-63
2023/01/29 05:04:18;;;;;;;;;61.20;49.20;;;;;4.92;57.44;102498.28;2062017;28;44954;-65
2023/01/29 05:05:19;;;;;;;;;63.80;50.00;;;;;4.91;57.30;102499.13;2068548;28;46205;-61
2023/01/29 05:06:23;;;;;;;;;59.00;49.00;;;;;4.90;57.53;102495.63;2077612;28;46625;-63
2023/01/29 05:07:28;;;;;;;;;51.80;44.80;;;;;4.90;57.76;102497.34;2067153;27;46841;-67
2023/01/29 05:08:31;;;;;;;;;57.20;46.80;;;;;4.90;57.33;102493.00;2070302;28;46976;-63
2023/01/29 05:09:33;;;;;;;;;54.20;44.00;;;;;4.91;57.86;102496.50;2065943;27;46963;-63
2023/01/29 05:10:34;;;;;;;;;55.20;43.60;;;;;4.91;57.64;102494.78;2072575;28;46231;-64
2023/01/29 05:11:36;;;;;;;;;61.50;50.00;;;;;4.93;57.60;102492.19;2070658;27;45874;-62
2023/01/29 05:12:37;;;;;;;;;57.00;47.00;;;;;4.93;57.80;102493.06;2070733;28;46228;-63
2023/01/29 05:13:40;;;;;;;;;54.20;46.20;;;;;4.94;57.74;102494.84;2072841;28;47012;-62
2023/01/29 05:14:43;;;;;;;;;56.60;46.80;;;;;4.95;57.89;102486.09;2077011;28;45943;-62
2023/01/29 05:15:49;;;;;;;;;59.20;48.80;;;;;4.97;57.77;102492.34;2061525;28;46638;-62
2023/01/29 05:16:53;;;;;;;;;56.80;47.40;;;;;4.98;57.31;102487.97;2055852;28;46451;-63
2023/01/29 05:18:00;;;;;;;;;56.80;44.40;;;;;4.98;57.36;102493.22;2055705;28;46448;-65
2023/01/29 05:19:01;;;;;;;;;54.20;44.60;;;;;4.97;57.64;102489.69;2062455;28;46951;-63
2023/01/29 05:20:01;;;;;;;;;56.75;44.00;;;;;4.96;57.52;102481.78;2069847;28;46117;-64
2023/01/29 05:21:06;;;;;;;;;29.00;27.00;;;;;4.96;57.81;102480.03;2064073;28;46502;-63
2023/01/29 05:22:10;;;;;;;;;54.00;44.80;;;;;4.95;57.44;102472.94;2070130;28;46705;-64
2023/01/29 05:23:21;;;;;;;;;59.80;49.80;;;;;4.96;58.11;102476.50;2069342;28;46691;-64
2023/01/29 05:24:25;;;;;;;;;54.80;45.20;;;;;4.97;57.57;102480.91;2070204;27;46593;-62
2023/01/29 05:25:31;;;;;;;;;55.80;46.60;;;;;4.97;58.10;102473.03;2070455;27;45939;-63
2023/01/29 05:28:06;;;;;;;;;51.20;43.60;;;;;4.96;57.61;102473.88;2070471;27;45675;-63
2023/01/29 05:29:06;;;;;;;;;55.80;46.00;;;;;4.95;57.98;102475.59;2070072;27;46220;-62
2023/01/29 05:30:09;;;;;;;;;55.50;45.50;;;;;4.96;57.53;102477.41;2064738;28;46581;-63
2023/01/29 05:31:09;;;;;;;;;56.20;45.00;;;;;4.96;58.02;102481.78;2061220;28;46378;-63
2023/01/29 05:32:09;;;;;;;;;58.00;48.25;;;;;4.95;57.74;102474.69;2070867;28;46424;-64
2023/01/29 05:33:15;;;;;;;;;51.50;42.75;;;;;4.94;57.75;102473.81;2065532;28;46515;-63
2023/01/29 05:34:16;;;;;;;;;58.80;46.40;;;;;4.95;57.78;102469.44;2065427;28;46553;-63
2023/01/29 05:35:16;;;;;;;;;56.00;47.25;;;;;4.96;57.42;102465.97;2062222;28;46192;-64
2023/01/29 05:36:17;;;;;;;;;53.75;43.00;;;;;4.96;57.88;102465.97;2069548;28;45937;-63
2023/01/29 05:37:17;;;;;;;;;48.50;43.50;;;;;4.97;57.66;102467.75;2069831;28;46459;-62
2023/01/29 05:38:18;;;;;;;;;55.25;44.00;;;;;4.95;57.88;102462.44;2070428;28;46801;-63
2023/01/29 05:39:18;;;;;;;;;58.60;44.40;;;;;4.96;57.43;102468.63;2070259;28;45753;-63